AAY1895 KLAS-KBLI
Flight info
| Callsign | AAY1895 |
|---|---|
| Flight time | N/A |
| Altitude | 38000 |
| Route | JOHKR5 KENNO LOMIA LKV POWEL KONAH MADEE6 |
| Aircraft | A319/M-VGDW/C |
Departure
| Time | N/A |
|---|---|
| Airport | Harry Reid International Airport (KLAS) |
Arrival
| Time | 2026-04-20 01:13 |
|---|---|
| Airport | Bellingham International Airport (KBLI) |
| Time | Latitude | Longitude | Altitude | Speed | Heading |
|---|---|---|---|---|---|
| 2026-04-19 23:59 | 40.45729 | -119.61890 | 37888 ft | 454 kts | 338° |
| 2026-04-19 23:59 | 40.48746 | -119.63164 | 37892 ft | 454 kts | 338° |
| 2026-04-20 00:00 | 40.54731 | -119.65698 | 37899 ft | 455 kts | 338° |
| 2026-04-20 00:00 | 40.60765 | -119.68257 | 37906 ft | 455 kts | 338° |
| 2026-04-20 00:01 | 40.66810 | -119.70819 | 37907 ft | 456 kts | 338° |
| 2026-04-20 00:02 | 40.75846 | -119.74666 | 37921 ft | 456 kts | 338° |
| 2026-04-20 00:02 | 40.81909 | -119.77248 | 37931 ft | 457 kts | 338° |
| 2026-04-20 00:03 | 40.87930 | -119.79818 | 37940 ft | 456 kts | 338° |
| 2026-04-20 00:03 | 40.93998 | -119.82429 | 37941 ft | 456 kts | 338° |
| 2026-04-20 00:04 | 41.00006 | -119.85001 | 37938 ft | 456 kts | 338° |
| 2026-04-20 00:04 | 41.06056 | -119.87599 | 37948 ft | 457 kts | 338° |
| 2026-04-20 00:05 | 41.12121 | -119.90218 | 37943 ft | 457 kts | 338° |
| 2026-04-20 00:05 | 41.18135 | -119.92811 | 37937 ft | 457 kts | 338° |
| 2026-04-20 00:06 | 41.24194 | -119.95428 | 37945 ft | 457 kts | 338° |
| 2026-04-20 00:06 | 41.30244 | -119.98051 | 37941 ft | 457 kts | 338° |
| 2026-04-20 00:07 | 41.36275 | -120.00673 | 37937 ft | 457 kts | 338° |
| 2026-04-20 00:07 | 41.42327 | -120.03309 | 37928 ft | 457 kts | 338° |
| 2026-04-20 00:08 | 41.48347 | -120.05927 | 37936 ft | 458 kts | 338° |
| 2026-04-20 00:08 | 41.54406 | -120.08574 | 37936 ft | 458 kts | 338° |
| 2026-04-20 00:09 | 41.60479 | -120.11230 | 37942 ft | 458 kts | 338° |
| 2026-04-20 00:09 | 41.66509 | -120.13869 | 37945 ft | 458 kts | 338° |
| 2026-04-20 00:10 | 41.72574 | -120.16534 | 37943 ft | 459 kts | 338° |
| 2026-04-20 00:10 | 41.78654 | -120.19202 | 37936 ft | 459 kts | 338° |
| 2026-04-20 00:11 | 41.84700 | -120.21875 | 37939 ft | 459 kts | 338° |
| 2026-04-20 00:11 | 41.89795 | -120.24128 | 37945 ft | 460 kts | 338° |
| 2026-04-20 00:12 | 41.95855 | -120.26817 | 37954 ft | 460 kts | 338° |
| 2026-04-20 00:12 | 42.01952 | -120.29523 | 37963 ft | 461 kts | 338° |
| 2026-04-20 00:13 | 42.08012 | -120.32212 | 37972 ft | 461 kts | 338° |
| 2026-04-20 00:13 | 42.14122 | -120.34930 | 37970 ft | 462 kts | 338° |
| 2026-04-20 00:14 | 42.20204 | -120.37641 | 37974 ft | 462 kts | 338° |
| 2026-04-20 00:14 | 42.26327 | -120.40382 | 37981 ft | 463 kts | 338° |
| 2026-04-20 00:15 | 42.32451 | -120.43127 | 37979 ft | 463 kts | 338° |
| 2026-04-20 00:15 | 42.38558 | -120.45865 | 37974 ft | 463 kts | 338° |
| 2026-04-20 00:16 | 42.44694 | -120.48629 | 37970 ft | 464 kts | 337° |
| 2026-04-20 00:16 | 42.50809 | -120.51343 | 37975 ft | 465 kts | 339° |
| 2026-04-20 00:17 | 42.57102 | -120.53570 | 37970 ft | 468 kts | 343° |
| 2026-04-20 00:17 | 42.63473 | -120.55521 | 37973 ft | 468 kts | 343° |
| 2026-04-20 00:18 | 42.69793 | -120.57533 | 37970 ft | 467 kts | 342° |
| 2026-04-20 00:18 | 42.76109 | -120.59665 | 37970 ft | 467 kts | 342° |
| 2026-04-20 00:19 | 42.82381 | -120.61809 | 37965 ft | 467 kts | 342° |
| 2026-04-20 00:19 | 42.88701 | -120.63956 | 37970 ft | 467 kts | 342° |
| 2026-04-20 00:20 | 42.95020 | -120.66095 | 37962 ft | 467 kts | 342° |
| 2026-04-20 00:20 | 43.01284 | -120.68226 | 37959 ft | 467 kts | 342° |
| 2026-04-20 00:21 | 43.07598 | -120.70376 | 37955 ft | 467 kts | 342° |
| 2026-04-20 00:21 | 43.13877 | -120.72514 | 37954 ft | 467 kts | 342° |
| 2026-04-20 00:22 | 43.20198 | -120.74671 | 37952 ft | 467 kts | 342° |
| 2026-04-20 00:22 | 43.26481 | -120.76823 | 37954 ft | 467 kts | 342° |
| 2026-04-20 00:23 | 43.32795 | -120.78994 | 37954 ft | 467 kts | 342° |
| 2026-04-20 00:23 | 43.39067 | -120.81145 | 37953 ft | 467 kts | 342° |
| 2026-04-20 00:24 | 43.45380 | -120.83324 | 37953 ft | 467 kts | 342° |
| 2026-04-20 00:24 | 43.51699 | -120.85509 | 37952 ft | 467 kts | 342° |
| 2026-04-20 00:25 | 43.57961 | -120.87665 | 37949 ft | 466 kts | 342° |
| 2026-04-20 00:25 | 43.64263 | -120.89845 | 37943 ft | 466 kts | 342° |
| 2026-04-20 00:26 | 43.70557 | -120.92030 | 37941 ft | 466 kts | 342° |
| 2026-04-20 00:26 | 43.76852 | -120.94227 | 37936 ft | 466 kts | 342° |
| 2026-04-20 00:27 | 43.83124 | -120.96421 | 37930 ft | 466 kts | 342° |
| 2026-04-20 00:27 | 43.89422 | -120.98619 | 37926 ft | 466 kts | 342° |
| 2026-04-20 00:28 | 43.95731 | -121.00827 | 37925 ft | 466 kts | 342° |
| 2026-04-20 00:28 | 44.01989 | -121.03029 | 37927 ft | 466 kts | 342° |
| 2026-04-20 00:29 | 44.08278 | -121.05248 | 37928 ft | 466 kts | 342° |
| 2026-04-20 00:29 | 44.14546 | -121.07463 | 37929 ft | 466 kts | 342° |
| 2026-04-20 00:30 | 44.20859 | -121.09644 | 37930 ft | 466 kts | 344° |
| 2026-04-20 00:30 | 44.27224 | -121.11549 | 37928 ft | 467 kts | 345° |
| 2026-04-20 00:31 | 44.33561 | -121.13338 | 37931 ft | 467 kts | 345° |
| 2026-04-20 00:31 | 44.39926 | -121.15197 | 37934 ft | 467 kts | 345° |
| 2026-04-20 00:32 | 44.46289 | -121.17118 | 37937 ft | 467 kts | 345° |
| 2026-04-20 00:32 | 44.52602 | -121.19037 | 37935 ft | 467 kts | 345° |
| 2026-04-20 00:33 | 44.58975 | -121.20960 | 37937 ft | 467 kts | 345° |
| 2026-04-20 00:33 | 44.65304 | -121.22855 | 37945 ft | 467 kts | 345° |
| 2026-04-20 00:34 | 44.71673 | -121.24780 | 37946 ft | 467 kts | 345° |
| 2026-04-20 00:34 | 44.78041 | -121.26712 | 37950 ft | 467 kts | 345° |
| 2026-04-20 00:35 | 44.84363 | -121.28637 | 37952 ft | 466 kts | 345° |
| 2026-04-20 00:35 | 44.90712 | -121.30575 | 37954 ft | 466 kts | 345° |
| 2026-04-20 00:36 | 44.97024 | -121.32499 | 37951 ft | 465 kts | 345° |
| 2026-04-20 00:36 | 45.03363 | -121.34433 | 37951 ft | 465 kts | 345° |
| 2026-04-20 00:37 | 45.09685 | -121.36372 | 37954 ft | 464 kts | 345° |
| 2026-04-20 00:37 | 45.15960 | -121.38308 | 37946 ft | 464 kts | 345° |
| 2026-04-20 00:38 | 45.22275 | -121.40257 | 37959 ft | 464 kts | 345° |
| 2026-04-20 00:38 | 45.28596 | -121.42204 | 37953 ft | 463 kts | 345° |
| 2026-04-20 00:39 | 45.34866 | -121.44145 | 37940 ft | 463 kts | 345° |
| 2026-04-20 00:39 | 45.41162 | -121.46096 | 37944 ft | 462 kts | 345° |
| 2026-04-20 00:40 | 45.47472 | -121.48057 | 37942 ft | 462 kts | 345° |
| 2026-04-20 00:40 | 45.53729 | -121.50009 | 37940 ft | 462 kts | 345° |
| 2026-04-20 00:41 | 45.60013 | -121.51975 | 37928 ft | 461 kts | 345° |
| 2026-04-20 00:41 | 45.66288 | -121.53938 | 37939 ft | 461 kts | 345° |
| 2026-04-20 00:42 | 45.72530 | -121.55895 | 37936 ft | 461 kts | 345° |
| 2026-04-20 00:42 | 45.78802 | -121.57862 | 37939 ft | 460 kts | 345° |
| 2026-04-20 00:43 | 45.85035 | -121.59820 | 37944 ft | 460 kts | 345° |
| 2026-04-20 00:43 | 45.91291 | -121.61813 | 37937 ft | 460 kts | 345° |
| 2026-04-20 00:44 | 45.97549 | -121.63796 | 37941 ft | 459 kts | 345° |
| 2026-04-20 00:44 | 46.03774 | -121.65761 | 37939 ft | 459 kts | 345° |
| 2026-04-20 00:45 | 46.09975 | -121.67732 | 37944 ft | 459 kts | 345° |
| 2026-04-20 00:45 | 46.16215 | -121.69719 | 37946 ft | 458 kts | 345° |
| 2026-04-20 00:46 | 46.22442 | -121.71705 | 37942 ft | 458 kts | 345° |
| 2026-04-20 00:46 | 46.28633 | -121.73701 | 37940 ft | 457 kts | 345° |
| 2026-04-20 00:47 | 46.34864 | -121.75708 | 37936 ft | 457 kts | 345° |
| 2026-04-20 00:47 | 46.41071 | -121.77704 | 37935 ft | 456 kts | 345° |
| 2026-04-20 00:48 | 46.47246 | -121.79696 | 37939 ft | 457 kts | 345° |
| 2026-04-20 00:48 | 46.53447 | -121.81701 | 37932 ft | 456 kts | 345° |
| 2026-04-20 00:49 | 46.59654 | -121.83715 | 37938 ft | 456 kts | 345° |
| 2026-04-20 00:49 | 46.65904 | -121.85747 | 37665 ft | 467 kts | 345° |
| 2026-04-20 00:49 | 46.69078 | -121.86785 | 37388 ft | 468 kts | 345° |
| 2026-04-20 00:50 | 46.72245 | -121.87815 | 36886 ft | 464 kts | 345° |
| 2026-04-20 00:50 | 46.75381 | -121.88831 | 36375 ft | 460 kts | 345° |
| 2026-04-20 00:50 | 46.78499 | -121.89843 | 35848 ft | 457 kts | 346° |
| 2026-04-20 00:50 | 46.81555 | -121.90840 | 35339 ft | 454 kts | 345° |
| 2026-04-20 00:51 | 46.84642 | -121.91850 | 34799 ft | 452 kts | 345° |
| 2026-04-20 00:51 | 46.87704 | -121.92856 | 34266 ft | 450 kts | 345° |
| 2026-04-20 00:51 | 46.90769 | -121.93863 | 33708 ft | 449 kts | 345° |
| 2026-04-20 00:51 | 46.93803 | -121.94860 | 33162 ft | 445 kts | 345° |
| 2026-04-20 00:52 | 46.96778 | -121.95842 | 32648 ft | 442 kts | 345° |
| 2026-04-20 00:52 | 46.99773 | -121.96835 | 32118 ft | 438 kts | 345° |
| 2026-04-20 00:52 | 47.02743 | -121.97817 | 31613 ft | 435 kts | 345° |
| 2026-04-20 00:52 | 47.05622 | -121.98765 | 31119 ft | 432 kts | 345° |
| 2026-04-20 00:53 | 47.08549 | -121.99727 | 30632 ft | 429 kts | 345° |
| 2026-04-20 00:53 | 47.11458 | -122.00683 | 30149 ft | 426 kts | 345° |
| 2026-04-20 00:53 | 47.14345 | -122.01638 | 29635 ft | 423 kts | 345° |
| 2026-04-20 00:53 | 47.17208 | -122.02589 | 29167 ft | 419 kts | 345° |
| 2026-04-20 00:54 | 47.20004 | -122.03520 | 28730 ft | 414 kts | 345° |
| 2026-04-20 00:54 | 47.22808 | -122.04458 | 28283 ft | 411 kts | 345° |
| 2026-04-20 00:54 | 47.25588 | -122.05384 | 27837 ft | 407 kts | 346° |
| 2026-04-20 00:54 | 47.28348 | -122.06300 | 27391 ft | 405 kts | 346° |
| 2026-04-20 00:55 | 47.31093 | -122.07206 | 26919 ft | 403 kts | 346° |
| 2026-04-20 00:55 | 47.33828 | -122.08115 | 26462 ft | 401 kts | 346° |
| 2026-04-20 00:55 | 47.35632 | -122.08719 | 26158 ft | 400 kts | 346° |
| 2026-04-20 00:55 | 47.39257 | -122.09936 | 25515 ft | 399 kts | 346° |
| 2026-04-20 00:56 | 47.41928 | -122.10833 | 25045 ft | 398 kts | 346° |
| 2026-04-20 00:56 | 47.44626 | -122.11737 | 24544 ft | 397 kts | 346° |
| 2026-04-20 00:56 | 47.47326 | -122.12640 | 24046 ft | 397 kts | 346° |
| 2026-04-20 00:56 | 47.50024 | -122.13547 | 23540 ft | 397 kts | 346° |
| 2026-04-20 00:57 | 47.52723 | -122.14457 | 22979 ft | 396 kts | 346° |
| 2026-04-20 00:57 | 47.55400 | -122.15364 | 22486 ft | 394 kts | 346° |
| 2026-04-20 00:57 | 47.58065 | -122.16267 | 22028 ft | 391 kts | 346° |
| 2026-04-20 00:57 | 47.59815 | -122.16859 | 21702 ft | 389 kts | 346° |
| 2026-04-20 00:58 | 47.62452 | -122.17753 | 21267 ft | 386 kts | 346° |
| 2026-04-20 00:58 | 47.65069 | -122.18638 | 20754 ft | 385 kts | 346° |
| 2026-04-20 00:58 | 47.67669 | -122.19514 | 20290 ft | 382 kts | 346° |
| 2026-04-20 00:58 | 47.70249 | -122.20383 | 19873 ft | 379 kts | 346° |
| 2026-04-20 00:59 | 47.72790 | -122.21235 | 19480 ft | 376 kts | 346° |
| 2026-04-20 00:59 | 47.75339 | -122.22097 | 19006 ft | 375 kts | 346° |
| 2026-04-20 00:59 | 47.77871 | -122.22958 | 18543 ft | 374 kts | 345° |
| 2026-04-20 00:59 | 47.80390 | -122.23816 | 18094 ft | 372 kts | 345° |
| 2026-04-20 01:00 | 47.82905 | -122.24675 | 17711 ft | 367 kts | 345° |
| 2026-04-20 01:00 | 47.85403 | -122.25529 | 17229 ft | 365 kts | 345° |
| 2026-04-20 01:00 | 47.87873 | -122.26372 | 16731 ft | 364 kts | 345° |
| 2026-04-20 01:00 | 47.90326 | -122.27204 | 16350 ft | 360 kts | 345° |
| 2026-04-20 01:01 | 47.92769 | -122.28030 | 16003 ft | 356 kts | 346° |
| 2026-04-20 01:01 | 47.95160 | -122.28774 | 15877 ft | 345 kts | 347° |
| 2026-04-20 01:01 | 47.97501 | -122.29448 | 15623 ft | 339 kts | 347° |
| 2026-04-20 01:01 | 47.99782 | -122.30080 | 15293 ft | 337 kts | 347° |
| 2026-04-20 01:02 | 48.02085 | -122.30715 | 14953 ft | 334 kts | 347° |
| 2026-04-20 01:02 | 48.04365 | -122.31356 | 14611 ft | 332 kts | 347° |
| 2026-04-20 01:02 | 48.06632 | -122.32002 | 14266 ft | 330 kts | 347° |
| 2026-04-20 01:02 | 48.08881 | -122.32651 | 13942 ft | 328 kts | 347° |
| 2026-04-20 01:03 | 48.11119 | -122.33298 | 13620 ft | 326 kts | 347° |
| 2026-04-20 01:03 | 48.13317 | -122.33933 | 13272 ft | 324 kts | 347° |
| 2026-04-20 01:03 | 48.15525 | -122.34575 | 12928 ft | 322 kts | 347° |
| 2026-04-20 01:03 | 48.17711 | -122.35215 | 12582 ft | 319 kts | 347° |
| 2026-04-20 01:04 | 48.19892 | -122.35854 | 12233 ft | 317 kts | 347° |
| 2026-04-20 01:04 | 48.22047 | -122.36481 | 11787 ft | 314 kts | 347° |
| 2026-04-20 01:04 | 48.24188 | -122.37101 | 11318 ft | 312 kts | 347° |
| 2026-04-20 01:04 | 48.26309 | -122.37720 | 10861 ft | 309 kts | 347° |
| 2026-04-20 01:05 | 48.28417 | -122.38341 | 10396 ft | 307 kts | 347° |
| 2026-04-20 01:05 | 48.30506 | -122.38957 | 9932 ft | 305 kts | 348° |
| 2026-04-20 01:05 | 48.32583 | -122.39566 | 9429 ft | 302 kts | 348° |
| 2026-04-20 01:05 | 48.34628 | -122.40239 | 8864 ft | 299 kts | 341° |
| 2026-04-20 01:06 | 48.36546 | -122.41351 | 8299 ft | 297 kts | 337° |
| 2026-04-20 01:06 | 48.38458 | -122.42503 | 7757 ft | 295 kts | 337° |
| 2026-04-20 01:06 | 48.40367 | -122.43649 | 7225 ft | 293 kts | 338° |
| 2026-04-20 01:06 | 48.42260 | -122.44784 | 6683 ft | 291 kts | 338° |
| 2026-04-20 01:07 | 48.44136 | -122.45909 | 6130 ft | 289 kts | 338° |
| 2026-04-20 01:07 | 48.45979 | -122.47015 | 5579 ft | 287 kts | 338° |
| 2026-04-20 01:07 | 48.47830 | -122.48129 | 5046 ft | 286 kts | 338° |
| 2026-04-20 01:07 | 48.49676 | -122.49239 | 4637 ft | 284 kts | 338° |
| 2026-04-20 01:08 | 48.51490 | -122.50329 | 4388 ft | 275 kts | 338° |
| 2026-04-20 01:08 | 48.53223 | -122.51373 | 4250 ft | 262 kts | 338° |
| 2026-04-20 01:08 | 48.54877 | -122.52369 | 4141 ft | 249 kts | 338° |
| 2026-04-20 01:08 | 48.56445 | -122.53315 | 4035 ft | 237 kts | 338° |
| 2026-04-20 01:09 | 48.58017 | -122.53834 | 3833 ft | 231 kts | 0° |
| 2026-04-20 01:09 | 48.59598 | -122.53795 | 3552 ft | 229 kts | 1° |
| 2026-04-20 01:09 | 48.61183 | -122.53776 | 3283 ft | 226 kts | 0° |
| 2026-04-20 01:09 | 48.62750 | -122.53766 | 3014 ft | 224 kts | 0° |
| 2026-04-20 01:10 | 48.64302 | -122.53760 | 2752 ft | 222 kts | 0° |
| 2026-04-20 01:10 | 48.67356 | -122.53749 | 2209 ft | 212 kts | 0° |
| 2026-04-20 01:10 | 48.68790 | -122.53741 | 1997 ft | 198 kts | 0° |
| 2026-04-20 01:11 | 48.70127 | -122.53729 | 1740 ft | 186 kts | 0° |
| 2026-04-20 01:11 | 48.71365 | -122.53720 | 1513 ft | 173 kts | 0° |
| 2026-04-20 01:11 | 48.72493 | -122.53711 | 1326 ft | 150 kts | 0° |
| 2026-04-20 01:11 | 48.73475 | -122.53708 | 1145 ft | 133 kts | 359° |
| 2026-04-20 01:12 | 48.74385 | -122.53712 | 974 ft | 129 kts | 358° |
| 2026-04-20 01:12 | 48.75289 | -122.53707 | 809 ft | 131 kts | 357° |
| 2026-04-20 01:12 | 48.76208 | -122.53734 | 645 ft | 131 kts | 355° |
| 2026-04-20 01:12 | 48.77101 | -122.53753 | 472 ft | 127 kts | 357° |
| 2026-04-20 01:13 | 48.77993 | -122.53749 | 279 ft | 129 kts | 356° |
| 2026-04-20 01:13 | 48.78857 | -122.53762 | 155 ft | 111 kts | 358° |
| 2026-04-20 01:13 | 48.79325 | -122.53753 | 151 ft | 26 kts | 0° |
| 2026-04-20 01:13 | 48.79490 | -122.53755 | 150 ft | 22 kts | 359° |
| 2026-04-20 01:14 | 48.79551 | -122.53693 | 151 ft | 10 kts | 112° |
| 2026-04-20 01:14 | 48.79498 | -122.53618 | 151 ft | 11 kts | 141° |
| 2026-04-20 01:14 | 48.79444 | -122.53535 | 151 ft | 11 kts | 110° |
| 2026-04-20 01:14 | 48.79467 | -122.53445 | 152 ft | 8 kts | 66° |
| 2026-04-20 01:15 | 48.79474 | -122.53371 | 152 ft | 3 kts | 67° |
| 2026-04-20 01:15 | 48.79483 | -122.53352 | 152 ft | 1 kts | 52° |
| 2026-04-20 01:15 | 48.79490 | -122.53339 | 152 ft | 1 kts | 51° |
| 2026-04-20 01:15 | 48.79492 | -122.53334 | 152 ft | 0 kts | 50° |